Letzte 24h
Datum & Zeit Temp. Luft-
feuchte
Wind Nieder-
schlag
Luftdruck Tendenz
IN OUT IN OUT Richtung Min. Max.
2019.11.14 19:56 8.8 °C 6.3 °C 72% 80% OSO 106 ° 8 km/h 22 km/h 0.0 mm 1013.50 hPa gleichbleibend
20:57 8.6 °C 7.1 °C 72% 76% O 100 ° 9 km/h 23 km/h 0.0 mm 1013.30 hPa langsam fallend
21:57 8.5 °C 7.8 °C 72% 77% O 94 ° 16 km/h 34 km/h 0.0 mm 1013.50 hPa langsam steigend
22:58 8.6 °C 7.3 °C 73% 79% OSO 121 ° 17 km/h 30 km/h 0.0 mm 1013.40 hPa langsam fallend
23:59 8.6 °C 7.1 °C 73% 79% OSO 118 ° 17 km/h 32 km/h 0.0 mm 1012.80 hPa langsam fallend
2019.11.15 00:57 8.6 °C 6.9 °C 73% 81% O 99 ° 14 km/h 30 km/h 0.0 mm 1013.20 hPa langsam fallend
01:59 8.6 °C 7.1 °C 73% 82% OSO 112 ° 16 km/h 33 km/h 0.0 mm 1013.10 hPa langsam fallend
02:59 8.6 °C 7.0 °C 73% 83% O 97 ° 19 km/h 37 km/h 0.0 mm 1012.80 hPa gleichbleibend
03:59 8.6 °C 7.5 °C 74% 83% SO 125 ° 15 km/h 33 km/h 0.0 mm 1012.80 hPa langsam fallend
04:59 8.7 °C 7.5 °C 74% 85% OSO 102 ° 15 km/h 28 km/h 0.0 mm 1012.70 hPa langsam fallend
05:59 8.8 °C 7.5 °C 74% 84% OSO 108 ° 10 km/h 24 km/h 0.0 mm 1012.40 hPa langsam fallend
06:59 8.8 °C 8.0 °C 75% 83% OSO 118 ° 17 km/h 38 km/h 0.0 mm 1012.00 hPa langsam fallend
07:59 8.9 °C 8.3 °C 76% 84% OSO 115 ° 20 km/h 40 km/h 0.0 mm 1012.20 hPa langsam fallend
08:59 9.2 °C 9.1 °C 76% 82% O 100 ° 19 km/h 34 km/h 0.0 mm 1012.10 hPa langsam fallend
09:59 9.6 °C 10.4 °C 76% 75% OSO 109 ° 17 km/h 33 km/h 0.0 mm 1012.10 hPa langsam steigend
10:59 10.1 °C 11.0 °C 75% 72% O 101 ° 19 km/h 31 km/h 0.0 mm 1012.50 hPa langsam steigend
11:59 10.5 °C 11.5 °C 76% 72% O 86 ° 15 km/h 28 km/h 0.0 mm 1012.30 hPa langsam steigend
12:59 11.0 °C 12.2 °C 74% 66% OSO 121 ° 14 km/h 27 km/h 0.0 mm 1011.60 hPa langsam fallend
13:59 11.3 °C 11.6 °C 73% 70% SO 134 ° 18 km/h 36 km/h 0.0 mm 1012.00 hPa langsam fallend
14:59 11.4 °C 11.2 °C 72% 71% SO 133 ° 20 km/h 40 km/h 0.0 mm 1012.70 hPa langsam steigend
15:59 11.4 °C 10.5 °C 72% 76% OSO 118 ° 14 km/h 30 km/h 0.0 mm 1013.40 hPa steigend
16:59 11.1 °C 9.6 °C 72% 83% OSO 119 ° 19 km/h 44 km/h 0.0 mm 1011.90 hPa langsam fallend
17:59 10.9 °C 9.6 °C 74% 83% OSO 122 ° 15 km/h 39 km/h 0.0 mm 1012.70 hPa gleichbleibend
18:59 10.8 °C 10.0 °C 74% 81% SO 139 ° 17 km/h 40 km/h 0.0 mm 1013.30 hPa langsam fallend

 

Verlauf: letzte 24h
WIND   Windrose
(Klicke ins Bild, um den Hintergrund abzuschalten)
WIND   Windverkauf 2.5h
TEMP   Temperatur 2.5h
Druck   Luftdruck 2.5h
Regen   Luftdruck 2.5h